createdAt,value
2022-08-23T00:02:25.574Z,1.80
2022-08-23T00:05:07.679Z,1.20
2022-08-23T00:07:45.224Z,1.17
2022-08-23T00:10:16.074Z,1.30
2022-08-23T00:12:45.243Z,1.60
2022-08-23T00:15:16.950Z,1.55
2022-08-23T00:17:45.027Z,1.85
2022-08-23T00:20:19.742Z,1.38
2022-08-23T00:22:49.402Z,1.48
2022-08-23T00:25:17.483Z,1.70
2022-08-23T00:27:46.036Z,1.70
2022-08-23T00:30:15.941Z,1.40
2022-08-23T00:32:44.252Z,1.40
2022-08-23T00:35:14.370Z,1.60
2022-08-23T00:38:32.054Z,1.83
2022-08-23T00:40:46.411Z,1.70
2022-08-23T00:43:34.782Z,1.38
2022-08-23T00:46:27.851Z,1.50
2022-08-23T00:48:56.691Z,1.65
2022-08-23T00:51:29.212Z,2.05
2022-08-23T00:54:01.669Z,1.23
2022-08-23T00:56:32.802Z,1.58
2022-08-23T00:59:00.892Z,1.65
2022-08-23T01:01:29.129Z,1.55
2022-08-23T01:04:04.392Z,1.48
2022-08-23T01:06:38.143Z,1.40
2022-08-23T01:09:10.222Z,1.60
2022-08-23T01:11:44.042Z,2.08
2022-08-23T01:14:15.167Z,1.40
2022-08-23T01:16:47.310Z,1.27
2022-08-23T01:19:22.665Z,1.60
2022-08-23T01:21:56.431Z,1.70
2022-08-23T01:24:59.819Z,1.45
2022-08-23T01:27:15.194Z,1.25
2022-08-23T01:29:43.659Z,1.33
2022-08-23T01:32:12.010Z,1.50
2022-08-23T01:34:45.853Z,1.58
2022-08-23T01:37:21.216Z,1.20
2022-08-23T01:39:50.586Z,1.50
2022-08-23T01:42:18.482Z,1.70
2022-08-23T01:44:46.376Z,1.20
2022-08-23T01:47:14.328Z,2.13
2022-08-23T01:49:42.254Z,1.30
2022-08-23T01:52:10.310Z,1.60
2022-08-23T01:54:38.228Z,1.30
2022-08-23T01:57:10.947Z,1.65
2022-08-23T01:59:39.207Z,1.30
2022-08-23T02:02:07.905Z,1.38
2022-08-23T02:04:38.850Z,1.33
2022-08-23T02:07:06.842Z,1.35
2022-08-23T02:09:34.723Z,1.27
2022-08-23T02:12:02.690Z,1.00
2022-08-23T02:14:32.010Z,1.10
2022-08-23T02:17:04.931Z,1.63
2022-08-23T02:19:36.982Z,1.30
2022-08-23T02:22:06.801Z,1.10
2022-08-23T02:24:35.131Z,1.58
2022-08-23T02:27:05.725Z,1.20
2022-08-23T02:29:39.533Z,1.23
2022-08-23T02:32:08.008Z,1.38
2022-08-23T02:34:38.126Z,2.55
2022-08-23T02:37:06.946Z,1.33
2022-08-23T02:39:35.025Z,1.70
2022-08-23T02:42:07.137Z,1.40
2022-08-23T02:44:35.620Z,1.38
2022-08-23T02:47:07.654Z,1.65
2022-08-23T02:49:35.958Z,1.90
2022-08-23T02:52:04.937Z,1.50
2022-08-23T02:54:32.939Z,1.90
2022-08-23T02:57:00.972Z,1.50
2022-08-23T02:59:29.167Z,1.30
2022-08-23T03:01:57.378Z,1.65
2022-08-23T03:04:26.997Z,2.33
2022-08-23T03:06:55.008Z,1.77
2022-08-23T03:09:22.947Z,1.60
2022-08-23T03:11:51.130Z,2.47
2022-08-23T03:14:19.055Z,1.70
2022-08-23T03:16:46.958Z,1.10
2022-08-23T03:19:15.204Z,1.42
2022-08-23T03:21:44.494Z,1.42
2022-08-23T03:24:13.095Z,1.52
2022-08-23T03:26:42.866Z,1.17
2022-08-23T03:29:11.151Z,1.52
2022-08-23T03:31:39.420Z,1.52
2022-08-23T03:34:09.934Z,1.30
2022-08-23T03:36:40.324Z,1.48
2022-08-23T03:41:40.056Z,1.20
2022-08-23T03:44:07.979Z,1.70
2022-08-23T03:46:36.231Z,1.17
2022-08-23T03:49:06.022Z,1.70
2022-08-23T03:51:35.730Z,1.67
2022-08-23T03:54:03.839Z,1.42
2022-08-23T03:56:35.458Z,1.70
2022-08-23T03:59:06.501Z,2.13
2022-08-23T04:01:34.417Z,1.67
2022-08-23T04:04:02.382Z,1.50
2022-08-23T04:06:33.119Z,1.25
2022-08-23T04:09:01.515Z,1.58
2022-08-23T04:11:29.555Z,1.48
2022-08-23T04:13:58.910Z,1.70
2022-08-23T04:16:26.775Z,1.52
2022-08-23T04:18:54.702Z,1.55
2022-08-23T04:21:25.063Z,2.05
2022-08-23T04:23:54.079Z,1.65
2022-08-23T04:26:22.075Z,1.80
2022-08-23T04:28:53.619Z,2.00
2022-08-23T04:31:23.188Z,1.75
2022-08-23T04:33:52.660Z,1.80
2022-08-23T04:36:20.916Z,1.80
2022-08-23T04:38:51.523Z,1.58
2022-08-23T04:41:37.422Z,1.80
2022-08-23T04:44:06.355Z,1.60
2022-08-23T04:46:35.643Z,1.90
2022-08-23T04:49:04.255Z,1.58
2022-08-23T04:51:32.315Z,1.88
2022-08-23T04:54:00.247Z,1.67
2022-08-23T04:56:28.523Z,1.70
2022-08-23T04:58:56.420Z,1.98
2022-08-23T05:01:25.575Z,1.80
2022-08-23T05:03:55.741Z,2.03
2022-08-23T05:06:24.422Z,1.80
2022-08-23T05:08:52.358Z,1.83
2022-08-23T05:11:20.627Z,1.67
2022-08-23T05:13:49.077Z,2.00
2022-08-23T05:16:17.055Z,2.15
2022-08-23T05:18:45.190Z,2.10
2022-08-23T05:21:17.583Z,2.10
2022-08-23T05:23:50.954Z,1.92
2022-08-23T05:26:23.100Z,1.70
2022-08-23T05:28:51.126Z,1.77
2022-08-23T05:31:21.498Z,2.47
2022-08-23T05:33:49.890Z,1.67
2022-08-23T05:36:20.462Z,1.80
2022-08-23T05:38:48.422Z,1.60
2022-08-23T05:41:17.783Z,2.05
2022-08-23T05:43:49.292Z,1.77
2022-08-23T05:46:19.857Z,1.70
2022-08-23T05:48:51.196Z,2.10
2022-08-23T05:51:22.900Z,1.52
2022-08-23T05:53:52.446Z,1.90
2022-08-23T05:56:22.902Z,1.70
2022-08-23T06:01:21.768Z,1.80
2022-08-23T06:03:50.514Z,1.70
2022-08-23T06:06:21.363Z,1.88
2022-08-23T06:08:50.333Z,1.58
2022-08-23T06:11:20.631Z,2.28
2022-08-23T06:13:50.788Z,2.00
2022-08-23T06:16:20.937Z,2.60
2022-08-23T06:18:49.604Z,2.50
2022-08-23T06:21:18.555Z,2.20
2022-08-23T06:23:49.446Z,2.90
2022-08-23T06:26:20.789Z,2.20
2022-08-23T06:28:51.239Z,2.40
2022-08-23T06:31:41.907Z,2.80
2022-08-23T06:34:10.830Z,2.15
2022-08-23T06:36:38.877Z,2.63
2022-08-23T06:39:09.690Z,2.55
2022-08-23T06:41:39.855Z,2.58
2022-08-23T06:44:08.168Z,2.70
2022-08-23T06:46:36.529Z,2.60
2022-08-23T06:49:05.560Z,2.55
2022-08-23T06:51:35.819Z,2.67
2022-08-23T06:54:06.387Z,2.60
2022-08-23T06:59:06.460Z,3.25
2022-08-23T07:01:46.373Z,2.47
2022-08-23T07:04:20.482Z,2.72
2022-08-23T07:06:48.870Z,2.63
2022-08-23T07:09:18.533Z,3.47
2022-08-23T07:11:47.894Z,2.97
2022-08-23T07:14:21.174Z,3.00
2022-08-23T07:16:51.418Z,2.78
2022-08-23T07:19:21.973Z,2.80
2022-08-23T07:21:57.380Z,3.03
2022-08-23T07:24:29.479Z,2.80
2022-08-23T07:27:06.460Z,3.10
2022-08-23T07:29:34.811Z,2.88
2022-08-23T07:32:03.055Z,2.80
2022-08-23T07:34:31.246Z,2.60
2022-08-23T07:36:59.244Z,3.33
2022-08-23T07:39:27.264Z,3.28
2022-08-23T07:42:01.483Z,3.10
2022-08-23T07:44:49.430Z,2.63
2022-08-23T07:47:19.663Z,2.60
2022-08-23T07:49:47.859Z,2.45
2022-08-23T07:52:15.745Z,2.45
2022-08-23T07:54:48.497Z,2.83
2022-08-23T07:57:19.997Z,2.33
2022-08-23T08:02:16.786Z,2.17
2022-08-23T08:04:44.859Z,1.60
2022-08-23T08:07:21.174Z,3.00
2022-08-23T08:09:49.514Z,2.28
2022-08-23T08:12:19.083Z,1.92
2022-08-23T08:14:48.806Z,2.20
2022-08-23T08:17:18.120Z,2.13
2022-08-23T08:19:47.156Z,2.20
2022-08-23T08:22:15.225Z,2.50
2022-08-23T08:24:43.650Z,2.35
2022-08-23T08:27:11.878Z,1.60
2022-08-23T08:29:42.054Z,2.70
2022-08-23T08:32:13.690Z,2.60
2022-08-23T08:34:42.536Z,2.20
2022-08-23T08:37:10.547Z,1.77
2022-08-23T08:39:45.595Z,2.70
2022-08-23T08:42:46.520Z,2.45
2022-08-23T08:47:50.442Z,2.17
2022-08-23T08:50:24.120Z,1.98
2022-08-23T08:52:56.331Z,1.45
2022-08-23T08:55:32.416Z,1.73
2022-08-23T08:58:02.571Z,1.60
2022-08-23T09:00:35.126Z,1.90
2022-08-23T09:03:12.180Z,1.23
2022-08-23T09:05:46.855Z,1.90
2022-08-23T09:08:35.713Z,1.58
2022-08-23T09:11:10.214Z,1.48
2022-08-23T09:14:16.650Z,1.50
2022-08-23T09:16:52.633Z,1.40
2022-08-23T09:19:22.292Z,1.73
2022-08-23T09:21:57.982Z,1.57
2022-08-23T09:24:26.963Z,1.20
2022-08-23T09:26:56.249Z,1.55
2022-08-23T09:29:26.580Z,1.25
2022-08-23T09:31:58.526Z,1.33
2022-08-23T09:34:43.512Z,1.33
2022-08-23T09:37:19.104Z,1.25
2022-08-23T09:39:50.849Z,1.33
2022-08-23T09:42:37.783Z,1.35
2022-08-23T09:45:07.167Z,1.15
2022-08-23T09:47:44.620Z,1.13
2022-08-23T09:50:25.263Z,1.20
2022-08-23T09:52:57.406Z,1.23
2022-08-23T09:55:32.926Z,1.60
2022-08-23T09:58:02.023Z,1.52
2022-08-23T10:00:34.036Z,1.65
2022-08-23T10:03:26.355Z,1.02
2022-08-23T10:05:56.811Z,1.33
2022-08-23T10:10:59.773Z,1.10
2022-08-23T10:13:28.607Z,1.25
2022-08-23T10:16:06.625Z,1.20
2022-08-23T10:18:52.427Z,1.42
2022-08-23T10:21:26.397Z,1.52
2022-08-23T10:24:14.286Z,1.00
2022-08-23T10:26:52.078Z,1.17
2022-08-23T10:29:38.075Z,1.45
2022-08-23T10:32:19.199Z,1.13
2022-08-23T10:35:03.218Z,1.25
2022-08-23T10:37:56.780Z,0.90
2022-08-23T10:40:29.599Z,1.15
2022-08-23T10:43:09.741Z,1.13
2022-08-23T10:45:39.463Z,1.10
2022-08-23T10:48:22.032Z,1.13
2022-08-23T10:50:58.606Z,1.35
2022-08-23T10:53:36.446Z,0.90
2022-08-23T10:56:06.308Z,1.30
2022-08-23T10:58:41.125Z,1.17
2022-08-23T11:01:11.880Z,0.90
2022-08-23T11:03:47.806Z,1.00
2022-08-23T11:06:47.775Z,0.88
2022-08-23T11:09:50.222Z,1.30
2022-08-23T11:12:31.974Z,1.65
2022-08-23T11:15:23.118Z,1.30
2022-08-23T11:17:58.234Z,1.20
2022-08-23T11:21:03.862Z,1.08
2022-08-23T11:24:19.079Z,0.90
2022-08-23T11:27:07.618Z,1.20
2022-08-23T11:29:38.882Z,1.02
2022-08-23T11:32:38.032Z,1.10
2022-08-23T11:35:10.972Z,1.10
2022-08-23T11:38:00.437Z,1.10
2022-08-23T11:41:01.366Z,1.33
2022-08-23T11:43:34.690Z,1.50
2022-08-23T11:46:22.067Z,0.90
2022-08-23T11:48:58.518Z,0.90
2022-08-23T11:51:37.107Z,0.82
2022-08-23T11:54:32.293Z,0.70
2022-08-23T11:57:19.438Z,1.42
2022-08-23T12:00:07.656Z,0.93
2022-08-23T12:03:01.846Z,0.93
2022-08-23T12:06:03.498Z,0.93
2022-08-23T12:08:46.047Z,0.70
2022-08-23T12:11:15.265Z,0.88
2022-08-23T12:13:53.822Z,1.05
2022-08-23T12:16:44.322Z,0.85
2022-08-23T12:19:26.483Z,0.68
2022-08-23T12:21:57.591Z,0.82
2022-08-23T12:24:32.686Z,0.90
2022-08-23T12:27:09.733Z,1.00
2022-08-23T12:29:59.775Z,1.13
2022-08-23T12:32:40.132Z,0.90
2022-08-23T12:35:26.690Z,1.13
2022-08-23T12:38:02.049Z,0.80
2022-08-23T12:40:35.190Z,1.00
2022-08-23T12:43:08.238Z,0.95
2022-08-23T12:45:42.260Z,0.85
2022-08-23T12:48:20.256Z,1.00
2022-08-23T12:50:55.495Z,0.95
2022-08-23T12:53:30.141Z,0.75
2022-08-23T12:56:03.366Z,1.13
2022-08-23T12:58:35.019Z,1.05
2022-08-23T13:01:07.588Z,0.73
2022-08-23T13:03:39.983Z,1.10
2022-08-23T13:06:12.236Z,0.75
2022-08-23T13:08:45.819Z,1.10
2022-08-23T13:11:16.002Z,0.90
2022-08-23T13:13:45.482Z,1.00
2022-08-23T13:16:29.518Z,0.90
2022-08-23T13:19:16.627Z,0.73
2022-08-23T13:21:45.364Z,0.80
2022-08-23T13:24:38.479Z,0.88
2022-08-23T13:27:16.882Z,0.80
2022-08-23T13:29:56.568Z,0.80
2022-08-23T13:32:41.665Z,1.00
2022-08-23T13:35:34.604Z,1.20
2022-08-23T13:38:11.321Z,1.10
2022-08-23T13:40:46.042Z,0.75
2022-08-23T13:43:20.989Z,1.00
2022-08-23T13:45:51.790Z,1.02
2022-08-23T13:48:22.683Z,1.00
2022-08-23T13:50:52.689Z,0.77
2022-08-23T13:53:22.376Z,1.20
2022-08-23T13:55:53.576Z,0.93
2022-08-23T13:58:30.135Z,1.05
2022-08-23T14:00:58.829Z,0.80
2022-08-23T14:03:29.140Z,1.08
2022-08-23T14:05:58.754Z,0.70
2022-08-23T14:08:26.662Z,1.17
2022-08-23T14:10:54.751Z,1.00
2022-08-23T14:13:25.471Z,0.77
2022-08-23T14:15:56.368Z,0.95
2022-08-23T14:18:24.736Z,1.00
2022-08-23T14:20:53.677Z,1.10
2022-08-23T14:23:25.702Z,1.23
2022-08-23T14:25:58.973Z,0.68
2022-08-23T14:28:30.261Z,0.90
2022-08-23T14:30:58.413Z,0.90
2022-08-23T14:33:26.494Z,1.20
2022-08-23T14:35:54.411Z,1.10
2022-08-23T14:38:23.943Z,1.08
2022-08-23T14:40:55.121Z,1.03
2022-08-23T14:43:23.068Z,1.38
2022-08-23T14:45:54.283Z,1.08
2022-08-23T14:48:23.266Z,1.10
2022-08-23T14:50:51.387Z,1.10
2022-08-23T14:53:23.911Z,1.02
2022-08-23T14:56:12.271Z,1.45
2022-08-23T14:58:42.839Z,0.98
2022-08-23T15:01:11.262Z,0.82
2022-08-23T15:03:41.856Z,1.63
2022-08-23T15:06:09.960Z,1.02
2022-08-23T15:08:38.151Z,1.02
2022-08-23T15:14:00.100Z,0.88
2022-08-23T15:16:28.903Z,1.05
2022-08-23T15:18:58.004Z,0.95
2022-08-23T15:21:25.910Z,1.23
2022-08-23T15:23:53.994Z,1.23
2022-08-23T15:26:25.045Z,0.85
2022-08-23T15:28:53.487Z,1.10
2022-08-23T15:31:22.018Z,1.50
2022-08-23T15:33:50.231Z,2.80
2022-08-23T15:36:18.319Z,1.45
2022-08-23T15:38:48.835Z,1.00
2022-08-23T15:41:17.874Z,1.00
2022-08-23T15:43:47.562Z,1.48
2022-08-23T15:46:19.847Z,1.23
2022-08-23T15:48:52.070Z,1.88
2022-08-23T15:51:20.405Z,2.15
2022-08-23T15:53:48.713Z,1.10
2022-08-23T15:56:20.370Z,1.13
2022-08-23T15:58:50.234Z,1.40
2022-08-23T16:01:21.735Z,1.80
2022-08-23T16:03:52.436Z,1.50
2022-08-23T16:06:20.403Z,1.42
2022-08-23T16:08:52.626Z,2.15
2022-08-23T16:11:21.615Z,1.63
2022-08-23T16:13:55.398Z,2.13
2022-08-23T16:16:27.327Z,1.95
2022-08-23T16:18:55.538Z,2.38
2022-08-23T16:21:25.310Z,1.65
2022-08-23T16:23:53.256Z,1.60
2022-08-23T16:26:24.978Z,1.45
2022-08-23T16:29:07.447Z,1.63
2022-08-23T16:31:38.944Z,1.45
2022-08-23T16:34:09.613Z,1.20
2022-08-23T16:36:37.717Z,1.38
2022-08-23T16:39:06.679Z,1.65
2022-08-23T16:41:34.591Z,1.48
2022-08-23T16:44:02.527Z,1.40
2022-08-23T16:46:32.167Z,1.50
2022-08-23T16:49:00.090Z,1.40
2022-08-23T16:51:28.045Z,1.30
2022-08-23T16:54:02.488Z,1.63
2022-08-23T16:56:31.689Z,1.50
2022-08-23T16:59:00.088Z,1.92
2022-08-23T17:01:29.227Z,1.35
2022-08-23T17:03:58.516Z,1.27
2022-08-23T17:06:26.562Z,1.70
2022-08-23T17:08:54.454Z,1.52
2022-08-23T17:11:22.400Z,1.00
2022-08-23T17:13:50.993Z,1.52
2022-08-23T17:16:19.335Z,1.35
2022-08-23T17:18:47.268Z,1.20
2022-08-23T17:21:20.223Z,0.98
2022-08-23T17:23:48.192Z,1.33
2022-08-23T17:26:16.112Z,1.50
2022-08-23T17:28:44.163Z,1.77
2022-08-23T17:31:13.252Z,1.60
2022-08-23T17:33:41.903Z,1.42
2022-08-23T17:36:24.844Z,1.77
2022-08-23T17:38:52.801Z,1.88
2022-08-23T17:41:20.759Z,2.72
2022-08-23T17:43:48.974Z,2.40
2022-08-23T17:46:16.958Z,2.10
2022-08-23T17:48:44.943Z,1.70
2022-08-23T17:51:12.854Z,1.27
2022-08-23T17:53:42.419Z,1.40
2022-08-23T17:56:12.441Z,1.10
2022-08-23T17:58:40.579Z,1.60
2022-08-23T18:01:09.390Z,1.70
2022-08-23T18:03:37.392Z,1.75
2022-08-23T18:06:11.234Z,1.85
2022-08-23T18:08:47.276Z,1.48
2022-08-23T18:11:15.881Z,1.77
2022-08-23T18:13:44.395Z,1.92
2022-08-23T18:16:12.517Z,1.77
2022-08-23T18:18:40.529Z,1.55
2022-08-23T18:21:09.831Z,1.40
2022-08-23T18:23:39.024Z,1.90
2022-08-23T18:26:30.603Z,2.00
2022-08-23T18:28:57.639Z,2.00
2022-08-23T18:31:25.665Z,1.80
2022-08-23T18:33:57.110Z,1.60
2022-08-23T18:36:29.811Z,1.58
2022-08-23T18:38:57.980Z,1.92
2022-08-23T18:41:27.246Z,1.52
2022-08-23T18:43:55.197Z,1.33
2022-08-23T18:46:23.311Z,1.42
2022-08-23T18:48:53.274Z,1.48
2022-08-23T18:51:22.232Z,1.60
2022-08-23T18:53:50.182Z,1.10
2022-08-23T18:56:18.387Z,1.35
2022-08-23T18:58:47.926Z,1.65
2022-08-23T19:01:26.483Z,0.93
2022-08-23T19:03:57.408Z,1.13
2022-08-23T19:06:25.452Z,1.33
2022-08-23T19:08:53.402Z,1.10
2022-08-23T19:11:23.248Z,1.33
2022-08-23T19:13:52.563Z,1.25
2022-08-23T19:16:22.218Z,1.40
2022-08-23T19:18:51.644Z,1.20
2022-08-23T19:21:22.417Z,1.08
2022-08-23T19:23:52.327Z,1.40
2022-08-23T19:26:23.752Z,1.35
2022-08-23T19:28:54.005Z,1.75
2022-08-23T19:31:22.013Z,1.20
2022-08-23T19:33:50.996Z,1.65
2022-08-23T19:36:44.845Z,1.38
2022-08-23T19:39:08.956Z,1.55
2022-08-23T19:41:37.317Z,1.50
2022-08-23T19:44:07.831Z,1.88
2022-08-23T19:49:07.127Z,1.27
2022-08-23T19:51:35.456Z,1.25
2022-08-23T19:54:09.895Z,1.50
2022-08-23T19:56:42.460Z,1.15
2022-08-23T19:59:16.900Z,1.40
2022-08-23T20:01:45.425Z,1.35
2022-08-23T20:04:13.831Z,1.70
2022-08-23T20:06:41.780Z,1.60
2022-08-23T20:09:10.531Z,1.90
2022-08-23T20:11:39.201Z,1.65
2022-08-23T20:14:07.576Z,1.60
2022-08-23T20:16:38.296Z,1.65
2022-08-23T20:19:10.013Z,1.85
2022-08-23T20:21:38.337Z,1.52
2022-08-23T20:24:05.834Z,1.80
2022-08-23T20:26:37.299Z,2.00
2022-08-23T20:29:06.669Z,2.00
2022-08-23T20:31:40.061Z,2.25
2022-08-23T20:34:09.602Z,2.28
2022-08-23T20:36:37.880Z,2.03
2022-08-23T20:39:06.150Z,2.25
2022-08-23T20:41:36.253Z,2.03
2022-08-23T20:44:05.522Z,1.83
2022-08-23T20:46:33.798Z,1.75
2022-08-23T20:49:03.393Z,2.00
2022-08-23T20:51:31.991Z,1.80
2022-08-23T20:54:04.922Z,1.80
2022-08-23T20:56:33.139Z,1.80
2022-08-23T20:59:01.351Z,1.65
2022-08-23T21:01:29.234Z,1.45
2022-08-23T21:03:57.158Z,1.67
2022-08-23T21:06:29.120Z,1.67
2022-08-23T21:09:00.085Z,1.80
2022-08-23T21:11:29.928Z,1.33
2022-08-23T21:13:58.713Z,1.55
2022-08-23T21:16:27.728Z,1.75
2022-08-23T21:18:56.873Z,2.00
2022-08-23T21:21:27.424Z,1.73
2022-08-23T21:26:23.960Z,1.70
2022-08-23T21:28:52.915Z,1.80
2022-08-23T21:31:23.855Z,1.90
2022-08-23T21:33:52.767Z,1.70
2022-08-23T21:36:22.524Z,2.00
2022-08-23T21:38:52.562Z,1.85
2022-08-23T21:41:36.113Z,1.85
2022-08-23T21:44:09.855Z,1.52
2022-08-23T21:46:38.628Z,1.70
2022-08-23T21:49:07.887Z,1.85
2022-08-23T21:51:36.290Z,1.80
2022-08-23T21:54:09.034Z,2.20
2022-08-23T21:56:36.982Z,1.77
2022-08-23T21:59:08.563Z,2.05
2022-08-23T22:01:37.446Z,1.90
2022-08-23T22:04:07.458Z,1.92
2022-08-23T22:06:38.866Z,2.08
2022-08-23T22:09:13.131Z,1.60
2022-08-23T22:11:42.932Z,1.65
2022-08-23T22:14:12.680Z,1.75
2022-08-23T22:16:44.120Z,1.98
2022-08-23T22:19:13.068Z,1.63
2022-08-23T22:21:41.419Z,1.50
2022-08-23T22:24:11.518Z,1.90
2022-08-23T22:26:40.386Z,1.80
2022-08-23T22:29:09.014Z,1.60
2022-08-23T22:31:39.356Z,1.98
2022-08-23T22:34:09.271Z,2.10
2022-08-23T22:36:37.729Z,1.90
2022-08-23T22:39:06.167Z,1.70
2022-08-23T22:41:35.468Z,2.28
2022-08-23T22:44:04.636Z,1.85
2022-08-23T22:46:35.233Z,2.00
2022-08-23T22:49:03.460Z,1.75
2022-08-23T22:51:33.597Z,1.98
2022-08-23T22:54:03.674Z,1.90
2022-08-23T22:56:33.467Z,2.00
2022-08-23T22:59:02.777Z,1.95
2022-08-23T23:01:32.999Z,2.25
2022-08-23T23:04:04.083Z,2.10
2022-08-23T23:06:32.067Z,1.70
2022-08-23T23:09:00.510Z,2.08
2022-08-23T23:11:29.364Z,1.95
2022-08-23T23:13:58.702Z,1.83
2022-08-23T23:16:30.817Z,2.00
2022-08-23T23:19:16.885Z,1.85
2022-08-23T23:21:50.190Z,1.70
2022-08-23T23:24:20.217Z,1.77
2022-08-23T23:26:48.348Z,1.75
2022-08-23T23:29:16.249Z,1.77
2022-08-23T23:31:45.742Z,2.00
2022-08-23T23:34:13.787Z,1.40
2022-08-23T23:36:42.006Z,2.00
2022-08-23T23:39:12.672Z,2.25
2022-08-23T23:41:41.231Z,2.38
2022-08-23T23:44:09.895Z,2.30
2022-08-23T23:46:37.780Z,2.35
2022-08-23T23:49:07.134Z,2.30
2022-08-23T23:51:35.038Z,2.17
2022-08-23T23:54:03.175Z,2.22
2022-08-23T23:56:35.434Z,2.35
2022-08-23T23:59:03.359Z,2.42
